sensor_id;sensor_type;location;lat;lon;timestamp;P1;durP1;ratioP1;P2;durP2;ratioP2
24739;SDS011;45234;48.148;17.128;2023-06-19T00:01:12;23.33;;;20.50;;
24739;SDS011;45234;48.148;17.128;2023-06-19T00:03:39;22.13;;;18.75;;
24739;SDS011;45234;48.148;17.128;2023-06-19T00:06:06;21.27;;;17.90;;
24739;SDS011;45234;48.148;17.128;2023-06-19T00:08:33;22.33;;;18.98;;
24739;SDS011;45234;48.148;17.128;2023-06-19T00:11:02;21.77;;;18.33;;
24739;SDS011;45234;48.148;17.128;2023-06-19T00:13:29;22.15;;;17.23;;
24739;SDS011;45234;48.148;17.128;2023-06-19T00:15:56;18.10;;;16.00;;
24739;SDS011;45234;48.148;17.128;2023-06-19T00:18:27;21.85;;;17.15;;
24739;SDS011;45234;48.148;17.128;2023-06-19T00:20:54;16.33;;;14.00;;
24739;SDS011;45234;48.148;17.128;2023-06-19T00:23:22;15.73;;;14.02;;
24739;SDS011;45234;48.148;17.128;2023-06-19T00:25:49;15.60;;;13.88;;
24739;SDS011;45234;48.148;17.128;2023-06-19T00:28:16;16.27;;;13.18;;
24739;SDS011;45234;48.148;17.128;2023-06-19T00:30:46;14.05;;;12.40;;
24739;SDS011;45234;48.148;17.128;2023-06-19T00:33:13;16.38;;;12.82;;
24739;SDS011;45234;48.148;17.128;2023-06-19T00:35:40;16.83;;;13.27;;
24739;SDS011;45234;48.148;17.128;2023-06-19T00:38:08;17.30;;;13.55;;
24739;SDS011;45234;48.148;17.128;2023-06-19T00:40:35;16.17;;;14.07;;
24739;SDS011;45234;48.148;17.128;2023-06-19T00:43:02;17.75;;;14.95;;
24739;SDS011;45234;48.148;17.128;2023-06-19T00:45:29;17.92;;;14.93;;
24739;SDS011;45234;48.148;17.128;2023-06-19T00:47:57;17.17;;;14.27;;
24739;SDS011;45234;48.148;17.128;2023-06-19T00:50:27;18.13;;;16.23;;
24739;SDS011;45234;48.148;17.128;2023-06-19T00:52:58;19.60;;;16.27;;
24739;SDS011;45234;48.148;17.128;2023-06-19T00:55:28;18.40;;;15.98;;
24739;SDS011;45234;48.148;17.128;2023-06-19T00:57:56;19.63;;;16.30;;
24739;SDS011;45234;48.148;17.128;2023-06-19T01:00:25;19.40;;;15.30;;
24739;SDS011;45234;48.148;17.128;2023-06-19T01:02:52;18.67;;;15.20;;
24739;SDS011;45234;48.148;17.128;2023-06-19T01:05:20;17.65;;;15.65;;
24739;SDS011;45234;48.148;17.128;2023-06-19T01:10:31;18.13;;;15.90;;
24739;SDS011;45234;48.148;17.128;2023-06-19T01:15:45;18.88;;;15.63;;
24739;SDS011;45234;48.148;17.128;2023-06-19T01:18:14;18.25;;;16.13;;
24739;SDS011;45234;48.148;17.128;2023-06-19T01:20:42;19.08;;;15.73;;
24739;SDS011;45234;48.148;17.128;2023-06-19T01:23:09;19.50;;;16.05;;
24739;SDS011;45234;48.148;17.128;2023-06-19T01:25:38;17.65;;;15.70;;
24739;SDS011;45234;48.148;17.128;2023-06-19T01:28:06;18.15;;;16.17;;
24739;SDS011;45234;48.148;17.128;2023-06-19T01:30:37;21.15;;;16.23;;
24739;SDS011;45234;48.148;17.128;2023-06-19T01:35:33;19.45;;;16.77;;
24739;SDS011;45234;48.148;17.128;2023-06-19T01:38:02;18.83;;;16.15;;
24739;SDS011;45234;48.148;17.128;2023-06-19T01:40:33;20.67;;;16.38;;
24739;SDS011;45234;48.148;17.128;2023-06-19T01:43:01;17.63;;;15.55;;
24739;SDS011;45234;48.148;17.128;2023-06-19T01:45:30;18.30;;;16.35;;
24739;SDS011;45234;48.148;17.128;2023-06-19T01:47:59;20.80;;;17.88;;
24739;SDS011;45234;48.148;17.128;2023-06-19T01:50:26;18.67;;;16.67;;
24739;SDS011;45234;48.148;17.128;2023-06-19T01:52:53;19.42;;;16.08;;
24739;SDS011;45234;48.148;17.128;2023-06-19T01:55:21;22.85;;;16.88;;
24739;SDS011;45234;48.148;17.128;2023-06-19T01:57:48;21.33;;;17.20;;
24739;SDS011;45234;48.148;17.128;2023-06-19T02:00:15;20.42;;;16.65;;
24739;SDS011;45234;48.148;17.128;2023-06-19T02:02:43;17.90;;;16.00;;
24739;SDS011;45234;48.148;17.128;2023-06-19T02:05:11;17.48;;;15.57;;
24739;SDS011;45234;48.148;17.128;2023-06-19T02:07:39;18.33;;;15.85;;
24739;SDS011;45234;48.148;17.128;2023-06-19T02:10:06;20.00;;;15.95;;
24739;SDS011;45234;48.148;17.128;2023-06-19T02:12:35;17.20;;;14.25;;
24739;SDS011;45234;48.148;17.128;2023-06-19T02:15:04;17.85;;;14.05;;
24739;SDS011;45234;48.148;17.128;2023-06-19T02:17:33;18.35;;;14.00;;
24739;SDS011;45234;48.148;17.128;2023-06-19T02:20:03;17.23;;;13.93;;
24739;SDS011;45234;48.148;17.128;2023-06-19T02:22:34;14.98;;;13.32;;
24739;SDS011;45234;48.148;17.128;2023-06-19T02:25:01;15.65;;;13.65;;
24739;SDS011;45234;48.148;17.128;2023-06-19T02:27:30;13.05;;;11.65;;
24739;SDS011;45234;48.148;17.128;2023-06-19T02:29:59;13.75;;;12.00;;
24739;SDS011;45234;48.148;17.128;2023-06-19T02:32:32;13.10;;;11.43;;
24739;SDS011;45234;48.148;17.128;2023-06-19T02:35:02;14.30;;;11.25;;
24739;SDS011;45234;48.148;17.128;2023-06-19T02:37:35;15.50;;;11.35;;
24739;SDS011;45234;48.148;17.128;2023-06-19T02:40:06;11.55;;;10.20;;
24739;SDS011;45234;48.148;17.128;2023-06-19T02:42:35;12.82;;;10.95;;
24739;SDS011;45234;48.148;17.128;2023-06-19T02:45:02;15.00;;;11.00;;
24739;SDS011;45234;48.148;17.128;2023-06-19T02:47:40;15.38;;;11.93;;
24739;SDS011;45234;48.148;17.128;2023-06-19T02:50:07;19.20;;;11.35;;
24739;SDS011;45234;48.148;17.128;2023-06-19T02:52:36;16.63;;;11.50;;
24739;SDS011;45234;48.148;17.128;2023-06-19T02:55:03;12.88;;;11.25;;
24739;SDS011;45234;48.148;17.128;2023-06-19T02:57:30;13.73;;;10.40;;
24739;SDS011;45234;48.148;17.128;2023-06-19T02:59:57;11.60;;;10.30;;
24739;SDS011;45234;48.148;17.128;2023-06-19T03:02:25;12.95;;;10.40;;
24739;SDS011;45234;48.148;17.128;2023-06-19T03:04:52;14.70;;;10.65;;
24739;SDS011;45234;48.148;17.128;2023-06-19T03:07:20;14.77;;;10.63;;
24739;SDS011;45234;48.148;17.128;2023-06-19T03:09:47;12.57;;;9.25;;
24739;SDS011;45234;48.148;17.128;2023-06-19T03:12:14;11.27;;;9.30;;
24739;SDS011;45234;48.148;17.128;2023-06-19T03:14:41;13.32;;;9.85;;
24739;SDS011;45234;48.148;17.128;2023-06-19T03:17:08;13.30;;;10.60;;
24739;SDS011;45234;48.148;17.128;2023-06-19T03:19:35;15.20;;;10.13;;
24739;SDS011;45234;48.148;17.128;2023-06-19T03:22:02;13.27;;;11.25;;
24739;SDS011;45234;48.148;17.128;2023-06-19T03:24:30;12.40;;;10.57;;
24739;SDS011;45234;48.148;17.128;2023-06-19T03:27:10;12.35;;;10.88;;
24739;SDS011;45234;48.148;17.128;2023-06-19T03:29:37;12.77;;;10.52;;
24739;SDS011;45234;48.148;17.128;2023-06-19T03:32:06;12.45;;;11.07;;
24739;SDS011;45234;48.148;17.128;2023-06-19T03:34:34;12.80;;;11.45;;
24739;SDS011;45234;48.148;17.128;2023-06-19T03:37:05;13.85;;;11.43;;
24739;SDS011;45234;48.148;17.128;2023-06-19T03:39:33;13.13;;;11.55;;
24739;SDS011;45234;48.148;17.128;2023-06-19T03:42:07;15.32;;;11.15;;
24739;SDS011;45234;48.148;17.128;2023-06-19T03:44:34;15.43;;;11.57;;
24739;SDS011;45234;48.148;17.128;2023-06-19T03:47:01;14.43;;;11.50;;
24739;SDS011;45234;48.148;17.128;2023-06-19T03:49:28;17.83;;;10.57;;
24739;SDS011;45234;48.148;17.128;2023-06-19T03:51:55;12.90;;;10.85;;
24739;SDS011;45234;48.148;17.128;2023-06-19T03:54:22;10.88;;;9.55;;
24739;SDS011;45234;48.148;17.128;2023-06-19T03:56:50;12.35;;;10.40;;
24739;SDS011;45234;48.148;17.128;2023-06-19T03:59:17;12.40;;;10.57;;
24739;SDS011;45234;48.148;17.128;2023-06-19T04:01:44;13.02;;;9.85;;
24739;SDS011;45234;48.148;17.128;2023-06-19T04:04:12;11.75;;;10.30;;
24739;SDS011;45234;48.148;17.128;2023-06-19T04:06:39;11.80;;;10.18;;
24739;SDS011;45234;48.148;17.128;2023-06-19T04:09:07;12.60;;;10.25;;
24739;SDS011;45234;48.148;17.128;2023-06-19T04:11:35;11.98;;;10.55;;
24739;SDS011;45234;48.148;17.128;2023-06-19T04:14:02;14.32;;;9.45;;
24739;SDS011;45234;48.148;17.128;2023-06-19T04:16:29;14.95;;;10.48;;
24739;SDS011;45234;48.148;17.128;2023-06-19T04:18:56;13.75;;;11.18;;
24739;SDS011;45234;48.148;17.128;2023-06-19T04:21:23;14.40;;;10.70;;
24739;SDS011;45234;48.148;17.128;2023-06-19T04:23:50;13.77;;;10.40;;
24739;SDS011;45234;48.148;17.128;2023-06-19T04:26:17;15.00;;;10.75;;
24739;SDS011;45234;48.148;17.128;2023-06-19T04:28:44;11.80;;;10.40;;
24739;SDS011;45234;48.148;17.128;2023-06-19T04:31:11;14.40;;;10.18;;
24739;SDS011;45234;48.148;17.128;2023-06-19T04:33:38;12.63;;;10.30;;
24739;SDS011;45234;48.148;17.128;2023-06-19T04:36:07;12.77;;;9.55;;
24739;SDS011;45234;48.148;17.128;2023-06-19T04:38:35;15.43;;;10.30;;
24739;SDS011;45234;48.148;17.128;2023-06-19T04:41:02;10.93;;;9.77;;
24739;SDS011;45234;48.148;17.128;2023-06-19T04:43:29;10.73;;;9.63;;
24739;SDS011;45234;48.148;17.128;2023-06-19T04:45:56;11.35;;;9.25;;
24739;SDS011;45234;48.148;17.128;2023-06-19T04:48:23;9.60;;;8.60;;
24739;SDS011;45234;48.148;17.128;2023-06-19T04:50:52;10.27;;;7.75;;
24739;SDS011;45234;48.148;17.128;2023-06-19T04:53:22;7.85;;;7.03;;
24739;SDS011;45234;48.148;17.128;2023-06-19T04:55:48;8.20;;;7.40;;
24739;SDS011;45234;48.148;17.128;2023-06-19T04:58:15;7.93;;;6.97;;
24739;SDS011;45234;48.148;17.128;2023-06-19T05:00:42;11.07;;;6.75;;
24739;SDS011;45234;48.148;17.128;2023-06-19T05:03:09;8.52;;;7.28;;
24739;SDS011;45234;48.148;17.128;2023-06-19T05:05:39;9.32;;;7.20;;
24739;SDS011;45234;48.148;17.128;2023-06-19T05:08:06;9.10;;;7.13;;
24739;SDS011;45234;48.148;17.128;2023-06-19T05:10:33;8.07;;;7.28;;
24739;SDS011;45234;48.148;17.128;2023-06-19T05:13:00;7.82;;;7.05;;
24739;SDS011;45234;48.148;17.128;2023-06-19T05:15:27;10.15;;;7.65;;
24739;SDS011;45234;48.148;17.128;2023-06-19T05:17:54;8.50;;;7.60;;
24739;SDS011;45234;48.148;17.128;2023-06-19T05:20:21;7.65;;;6.85;;
24739;SDS011;45234;48.148;17.128;2023-06-19T05:22:49;10.63;;;7.30;;
24739;SDS011;45234;48.148;17.128;2023-06-19T05:25:16;10.70;;;7.88;;
24739;SDS011;45234;48.148;17.128;2023-06-19T05:27:44;11.68;;;7.40;;
24739;SDS011;45234;48.148;17.128;2023-06-19T05:30:11;7.50;;;6.60;;
24739;SDS011;45234;48.148;17.128;2023-06-19T05:32:38;8.45;;;7.55;;
24739;SDS011;45234;48.148;17.128;2023-06-19T05:35:05;7.63;;;6.93;;
24739;SDS011;45234;48.148;17.128;2023-06-19T05:37:32;7.05;;;6.30;;
24739;SDS011;45234;48.148;17.128;2023-06-19T05:39:59;8.35;;;7.35;;
24739;SDS011;45234;48.148;17.128;2023-06-19T05:42:28;8.10;;;7.00;;
24739;SDS011;45234;48.148;17.128;2023-06-19T05:44:55;11.55;;;7.10;;
24739;SDS011;45234;48.148;17.128;2023-06-19T05:47:22;9.23;;;7.50;;
24739;SDS011;45234;48.148;17.128;2023-06-19T05:49:51;8.15;;;7.35;;
24739;SDS011;45234;48.148;17.128;2023-06-19T05:52:18;8.60;;;7.63;;
24739;SDS011;45234;48.148;17.128;2023-06-19T05:54:47;9.90;;;8.25;;
24739;SDS011;45234;48.148;17.128;2023-06-19T05:57:14;9.88;;;7.30;;
24739;SDS011;45234;48.148;17.128;2023-06-19T05:59:42;8.15;;;7.45;;
24739;SDS011;45234;48.148;17.128;2023-06-19T06:02:09;8.45;;;7.63;;
24739;SDS011;45234;48.148;17.128;2023-06-19T06:04:35;8.75;;;7.93;;
24739;SDS011;45234;48.148;17.128;2023-06-19T06:07:03;8.45;;;7.55;;
24739;SDS011;45234;48.148;17.128;2023-06-19T06:09:30;8.68;;;7.80;;
24739;SDS011;45234;48.148;17.128;2023-06-19T06:11:59;9.65;;;7.60;;
24739;SDS011;45234;48.148;17.128;2023-06-19T06:14:26;8.20;;;7.50;;
24739;SDS011;45234;48.148;17.128;2023-06-19T06:16:53;10.98;;;7.78;;
24739;SDS011;45234;48.148;17.128;2023-06-19T06:19:21;8.18;;;7.40;;
24739;SDS011;45234;48.148;17.128;2023-06-19T06:21:51;8.55;;;7.78;;
24739;SDS011;45234;48.148;17.128;2023-06-19T06:24:18;8.43;;;6.95;;
24739;SDS011;45234;48.148;17.128;2023-06-19T06:26:45;8.40;;;7.55;;
24739;SDS011;45234;48.148;17.128;2023-06-19T06:29:12;8.63;;;7.85;;
24739;SDS011;45234;48.148;17.128;2023-06-19T06:31:38;8.75;;;8.02;;
24739;SDS011;45234;48.148;17.128;2023-06-19T06:34:07;8.20;;;7.22;;
24739;SDS011;45234;48.148;17.128;2023-06-19T06:36:34;8.93;;;7.22;;
24739;SDS011;45234;48.148;17.128;2023-06-19T06:39:06;9.23;;;8.32;;
24739;SDS011;45234;48.148;17.128;2023-06-19T06:41:33;8.38;;;7.72;;
24739;SDS011;45234;48.148;17.128;2023-06-19T06:44:03;8.27;;;7.47;;
24739;SDS011;45234;48.148;17.128;2023-06-19T06:46:31;9.70;;;8.57;;
24739;SDS011;45234;48.148;17.128;2023-06-19T06:48:58;8.68;;;7.78;;
24739;SDS011;45234;48.148;17.128;2023-06-19T06:51:25;8.13;;;7.38;;
24739;SDS011;45234;48.148;17.128;2023-06-19T06:53:52;8.73;;;7.90;;
24739;SDS011;45234;48.148;17.128;2023-06-19T06:56:19;8.20;;;7.40;;
24739;SDS011;45234;48.148;17.128;2023-06-19T06:58:46;8.85;;;7.97;;
24739;SDS011;45234;48.148;17.128;2023-06-19T07:01:13;8.65;;;7.95;;
24739;SDS011;45234;48.148;17.128;2023-06-19T07:03:41;8.18;;;7.32;;
24739;SDS011;45234;48.148;17.128;2023-06-19T07:06:08;8.05;;;7.25;;
24739;SDS011;45234;48.148;17.128;2023-06-19T07:08:34;8.65;;;7.63;;
24739;SDS011;45234;48.148;17.128;2023-06-19T07:11:01;11.80;;;7.25;;
24739;SDS011;45234;48.148;17.128;2023-06-19T07:13:28;8.75;;;7.53;;
24739;SDS011;45234;48.148;17.128;2023-06-19T07:15:55;11.48;;;7.90;;
24739;SDS011;45234;48.148;17.128;2023-06-19T07:18:24;10.35;;;7.47;;
24739;SDS011;45234;48.148;17.128;2023-06-19T07:20:51;9.77;;;8.02;;
24739;SDS011;45234;48.148;17.128;2023-06-19T07:23:17;7.75;;;7.15;;
24739;SDS011;45234;48.148;17.128;2023-06-19T07:25:45;8.15;;;7.35;;
24739;SDS011;45234;48.148;17.128;2023-06-19T07:28:13;7.70;;;7.00;;
24739;SDS011;45234;48.148;17.128;2023-06-19T07:30:40;8.65;;;7.85;;
24739;SDS011;45234;48.148;17.128;2023-06-19T07:33:07;8.77;;;7.00;;
24739;SDS011;45234;48.148;17.128;2023-06-19T07:35:35;8.13;;;7.32;;
24739;SDS011;45234;48.148;17.128;2023-06-19T07:38:02;8.45;;;7.57;;
24739;SDS011;45234;48.148;17.128;2023-06-19T07:40:29;11.80;;;7.75;;
24739;SDS011;45234;48.148;17.128;2023-06-19T07:42:56;10.82;;;7.45;;
24739;SDS011;45234;48.148;17.128;2023-06-19T07:45:23;8.25;;;7.40;;
24739;SDS011;45234;48.148;17.128;2023-06-19T07:47:53;8.98;;;8.20;;
24739;SDS011;45234;48.148;17.128;2023-06-19T07:50:21;8.25;;;7.55;;
24739;SDS011;45234;48.148;17.128;2023-06-19T07:52:52;9.07;;;7.95;;
24739;SDS011;45234;48.148;17.128;2023-06-19T07:55:19;10.05;;;6.68;;
24739;SDS011;45234;48.148;17.128;2023-06-19T07:57:46;10.57;;;7.57;;
24739;SDS011;45234;48.148;17.128;2023-06-19T08:00:13;7.53;;;6.93;;
24739;SDS011;45234;48.148;17.128;2023-06-19T08:02:40;8.18;;;7.47;;
24739;SDS011;45234;48.148;17.128;2023-06-19T08:05:08;8.63;;;6.90;;
24739;SDS011;45234;48.148;17.128;2023-06-19T08:07:36;7.88;;;7.18;;
24739;SDS011;45234;48.148;17.128;2023-06-19T08:10:04;7.75;;;6.88;;
24739;SDS011;45234;48.148;17.128;2023-06-19T08:12:40;8.00;;;7.40;;
24739;SDS011;45234;48.148;17.128;2023-06-19T08:15:10;8.83;;;7.57;;
24739;SDS011;45234;48.148;17.128;2023-06-19T08:17:42;8.57;;;7.03;;
24739;SDS011;45234;48.148;17.128;2023-06-19T08:20:09;7.85;;;6.97;;
24739;SDS011;45234;48.148;17.128;2023-06-19T08:22:36;8.38;;;7.55;;
24739;SDS011;45234;48.148;17.128;2023-06-19T08:25:05;8.18;;;7.35;;
24739;SDS011;45234;48.148;17.128;2023-06-19T08:27:32;11.30;;;6.90;;
24739;SDS011;45234;48.148;17.128;2023-06-19T08:29:59;12.45;;;7.28;;
24739;SDS011;45234;48.148;17.128;2023-06-19T08:32:30;8.40;;;7.70;;
24739;SDS011;45234;48.148;17.128;2023-06-19T08:34:58;9.20;;;6.90;;
24739;SDS011;45234;48.148;17.128;2023-06-19T08:37:24;7.97;;;7.28;;
24739;SDS011;45234;48.148;17.128;2023-06-19T08:39:51;9.60;;;7.85;;
24739;SDS011;45234;48.148;17.128;2023-06-19T08:42:18;8.18;;;7.10;;
24739;SDS011;45234;48.148;17.128;2023-06-19T08:44:45;7.65;;;7.00;;
24739;SDS011;45234;48.148;17.128;2023-06-19T08:47:12;8.75;;;7.38;;
24739;SDS011;45234;48.148;17.128;2023-06-19T08:49:39;10.55;;;7.40;;
24739;SDS011;45234;48.148;17.128;2023-06-19T08:52:08;8.57;;;7.78;;
24739;SDS011;45234;48.148;17.128;2023-06-19T08:54:35;11.45;;;8.25;;
24739;SDS011;45234;48.148;17.128;2023-06-19T08:57:10;8.02;;;7.22;;
24739;SDS011;45234;48.148;17.128;2023-06-19T08:59:38;8.55;;;7.75;;
24739;SDS011;45234;48.148;17.128;2023-06-19T09:02:05;9.77;;;7.40;;
24739;SDS011;45234;48.148;17.128;2023-06-19T09:04:32;8.48;;;7.68;;
24739;SDS011;45234;48.148;17.128;2023-06-19T09:07:02;10.30;;;7.93;;
24739;SDS011;45234;48.148;17.128;2023-06-19T09:09:44;8.35;;;7.55;;
24739;SDS011;45234;48.148;17.128;2023-06-19T09:12:14;8.82;;;7.93;;
24739;SDS011;45234;48.148;17.128;2023-06-19T09:14:46;8.32;;;7.40;;
24739;SDS011;45234;48.148;17.128;2023-06-19T09:17:17;8.65;;;7.50;;
24739;SDS011;45234;48.148;17.128;2023-06-19T09:19:48;9.63;;;7.07;;
24739;SDS011;45234;48.148;17.128;2023-06-19T09:22:17;8.88;;;7.55;;
24739;SDS011;45234;48.148;17.128;2023-06-19T09:24:46;11.75;;;8.10;;
24739;SDS011;45234;48.148;17.128;2023-06-19T09:27:16;9.82;;;7.30;;
24739;SDS011;45234;48.148;17.128;2023-06-19T09:29:46;11.45;;;7.43;;
24739;SDS011;45234;48.148;17.128;2023-06-19T09:34:45;11.60;;;8.07;;
24739;SDS011;45234;48.148;17.128;2023-06-19T09:37:12;9.55;;;8.57;;
24739;SDS011;45234;48.148;17.128;2023-06-19T09:39:40;10.68;;;7.35;;
24739;SDS011;45234;48.148;17.128;2023-06-19T09:42:09;15.07;;;8.23;;
24739;SDS011;45234;48.148;17.128;2023-06-19T09:44:42;13.77;;;7.43;;
24739;SDS011;45234;48.148;17.128;2023-06-19T09:47:17;11.98;;;8.02;;
24739;SDS011;45234;48.148;17.128;2023-06-19T09:49:49;12.20;;;7.03;;
24739;SDS011;45234;48.148;17.128;2023-06-19T09:52:20;8.40;;;7.50;;
24739;SDS011;45234;48.148;17.128;2023-06-19T09:54:53;8.77;;;7.18;;
24739;SDS011;45234;48.148;17.128;2023-06-19T09:57:21;10.35;;;7.43;;
24739;SDS011;45234;48.148;17.128;2023-06-19T09:59:50;10.05;;;6.97;;
24739;SDS011;45234;48.148;17.128;2023-06-19T10:02:20;8.27;;;7.35;;
24739;SDS011;45234;48.148;17.128;2023-06-19T10:04:49;9.88;;;7.43;;
24739;SDS011;45234;48.148;17.128;2023-06-19T10:07:19;8.48;;;7.53;;
24739;SDS011;45234;48.148;17.128;2023-06-19T10:10:00;8.73;;;7.80;;
24739;SDS011;45234;48.148;17.128;2023-06-19T10:15:11;8.05;;;7.28;;
24739;SDS011;45234;48.148;17.128;2023-06-19T10:18:04;14.55;;;7.70;;
24739;SDS011;45234;48.148;17.128;2023-06-19T10:23:02;8.13;;;7.32;;
24739;SDS011;45234;48.148;17.128;2023-06-19T10:25:47;10.65;;;7.00;;
24739;SDS011;45234;48.148;17.128;2023-06-19T10:33:30;10.32;;;7.22;;
24739;SDS011;45234;48.148;17.128;2023-06-19T10:41:17;10.77;;;6.97;;
24739;SDS011;45234;48.148;17.128;2023-06-19T10:44:04;7.65;;;6.60;;
24739;SDS011;45234;48.148;17.128;2023-06-19T10:46:35;7.40;;;6.70;;
24739;SDS011;45234;48.148;17.128;2023-06-19T10:49:02;11.95;;;7.70;;
24739;SDS011;45234;48.148;17.128;2023-06-19T10:51:40;9.38;;;7.78;;
24739;SDS011;45234;48.148;17.128;2023-06-19T10:54:09;10.43;;;6.72;;
24739;SDS011;45234;48.148;17.128;2023-06-19T10:56:36;7.22;;;6.53;;
24739;SDS011;45234;48.148;17.128;2023-06-19T10:59:04;11.02;;;7.00;;
24739;SDS011;45234;48.148;17.128;2023-06-19T11:01:36;10.97;;;7.13;;
24739;SDS011;45234;48.148;17.128;2023-06-19T11:04:11;7.53;;;6.75;;
24739;SDS011;45234;48.148;17.128;2023-06-19T11:06:40;8.25;;;6.78;;
24739;SDS011;45234;48.148;17.128;2023-06-19T11:09:11;7.75;;;6.85;;
24739;SDS011;45234;48.148;17.128;2023-06-19T11:11:43;9.50;;;6.22;;
24739;SDS011;45234;48.148;17.128;2023-06-19T11:14:14;10.10;;;6.85;;
24739;SDS011;45234;48.148;17.128;2023-06-19T11:16:44;7.13;;;6.25;;
24739;SDS011;45234;48.148;17.128;2023-06-19T11:19:16;8.23;;;6.47;;
24739;SDS011;45234;48.148;17.128;2023-06-19T11:21:45;9.18;;;7.03;;
24739;SDS011;45234;48.148;17.128;2023-06-19T11:24:14;8.20;;;6.22;;
24739;SDS011;45234;48.148;17.128;2023-06-19T11:26:43;8.25;;;6.68;;
24739;SDS011;45234;48.148;17.128;2023-06-19T11:29:17;8.63;;;6.28;;
24739;SDS011;45234;48.148;17.128;2023-06-19T11:31:46;7.00;;;6.32;;
24739;SDS011;45234;48.148;17.128;2023-06-19T11:34:15;9.27;;;6.65;;
24739;SDS011;45234;48.148;17.128;2023-06-19T11:36:47;9.25;;;6.55;;
24739;SDS011;45234;48.148;17.128;2023-06-19T11:39:16;9.48;;;6.43;;
24739;SDS011;45234;48.148;17.128;2023-06-19T11:41:44;8.45;;;6.35;;
24739;SDS011;45234;48.148;17.128;2023-06-19T11:44:11;8.52;;;6.50;;
24739;SDS011;45234;48.148;17.128;2023-06-19T11:46:38;8.07;;;6.45;;
24739;SDS011;45234;48.148;17.128;2023-06-19T11:49:15;10.13;;;5.90;;
24739;SDS011;45234;48.148;17.128;2023-06-19T11:51:46;12.52;;;6.60;;
24739;SDS011;45234;48.148;17.128;2023-06-19T11:54:14;10.52;;;7.05;;
24739;SDS011;45234;48.148;17.128;2023-06-19T11:56:41;8.77;;;7.00;;
24739;SDS011;45234;48.148;17.128;2023-06-19T11:59:09;13.70;;;6.97;;
24739;SDS011;45234;48.148;17.128;2023-06-19T12:01:36;12.38;;;6.60;;
24739;SDS011;45234;48.148;17.128;2023-06-19T12:04:05;10.13;;;6.78;;
24739;SDS011;45234;48.148;17.128;2023-06-19T12:06:32;7.00;;;6.15;;
24739;SDS011;45234;48.148;17.128;2023-06-19T12:09:01;7.50;;;5.95;;
24739;SDS011;45234;48.148;17.128;2023-06-19T12:11:30;8.02;;;7.20;;
24739;SDS011;45234;48.148;17.128;2023-06-19T12:13:57;11.98;;;6.88;;
24739;SDS011;45234;48.148;17.128;2023-06-19T12:16:24;8.23;;;6.28;;
24739;SDS011;45234;48.148;17.128;2023-06-19T12:18:52;7.43;;;6.35;;
24739;SDS011;45234;48.148;17.128;2023-06-19T12:21:19;9.15;;;6.50;;
24739;SDS011;45234;48.148;17.128;2023-06-19T12:24:02;8.45;;;6.30;;
24739;SDS011;45234;48.148;17.128;2023-06-19T12:26:30;6.82;;;6.07;;
24739;SDS011;45234;48.148;17.128;2023-06-19T12:29:03;7.55;;;6.43;;
24739;SDS011;45234;48.148;17.128;2023-06-19T12:31:38;7.13;;;6.32;;
24739;SDS011;45234;48.148;17.128;2023-06-19T12:34:05;7.15;;;6.25;;
24739;SDS011;45234;48.148;17.128;2023-06-19T12:36:34;8.15;;;7.00;;
24739;SDS011;45234;48.148;17.128;2023-06-19T12:39:01;7.18;;;6.43;;
24739;SDS011;45234;48.148;17.128;2023-06-19T12:41:31;7.45;;;6.40;;
24739;SDS011;45234;48.148;17.128;2023-06-19T12:43:58;7.30;;;6.45;;
24739;SDS011;45234;48.148;17.128;2023-06-19T12:46:25;9.10;;;6.60;;
24739;SDS011;45234;48.148;17.128;2023-06-19T12:48:52;8.07;;;6.72;;
24739;SDS011;45234;48.148;17.128;2023-06-19T12:51:19;8.13;;;6.25;;
24739;SDS011;45234;48.148;17.128;2023-06-19T12:53:46;7.07;;;6.38;;
24739;SDS011;45234;48.148;17.128;2023-06-19T12:56:13;7.70;;;7.00;;
24739;SDS011;45234;48.148;17.128;2023-06-19T12:58:40;7.22;;;6.50;;
24739;SDS011;45234;48.148;17.128;2023-06-19T13:01:07;9.10;;;6.75;;
24739;SDS011;45234;48.148;17.128;2023-06-19T13:03:34;7.40;;;6.30;;
24739;SDS011;45234;48.148;17.128;2023-06-19T13:06:01;6.78;;;6.13;;
24739;SDS011;45234;48.148;17.128;2023-06-19T13:08:28;7.70;;;6.90;;
24739;SDS011;45234;48.148;17.128;2023-06-19T13:10:55;6.53;;;5.93;;
24739;SDS011;45234;48.148;17.128;2023-06-19T13:13:22;9.25;;;6.05;;
24739;SDS011;45234;48.148;17.128;2023-06-19T13:15:49;7.05;;;6.38;;
24739;SDS011;45234;48.148;17.128;2023-06-19T13:18:17;20.23;;;10.70;;
24739;SDS011;45234;48.148;17.128;2023-06-19T13:20:44;7.43;;;6.63;;
24739;SDS011;45234;48.148;17.128;2023-06-19T13:23:14;7.60;;;6.80;;
24739;SDS011;45234;48.148;17.128;2023-06-19T13:25:41;8.38;;;6.50;;
24739;SDS011;45234;48.148;17.128;2023-06-19T13:28:07;9.63;;;6.32;;
24739;SDS011;45234;48.148;17.128;2023-06-19T13:30:34;6.88;;;6.18;;
24739;SDS011;45234;48.148;17.128;2023-06-19T13:33:01;7.53;;;6.70;;
24739;SDS011;45234;48.148;17.128;2023-06-19T13:35:30;8.73;;;6.68;;
24739;SDS011;45234;48.148;17.128;2023-06-19T13:37:57;7.10;;;6.40;;
24739;SDS011;45234;48.148;17.128;2023-06-19T13:40:28;10.27;;;6.15;;
24739;SDS011;45234;48.148;17.128;2023-06-19T13:42:55;6.82;;;6.15;;
24739;SDS011;45234;48.148;17.128;2023-06-19T13:45:22;9.77;;;6.88;;
24739;SDS011;45234;48.148;17.128;2023-06-19T13:47:49;7.40;;;6.72;;
24739;SDS011;45234;48.148;17.128;2023-06-19T13:50:15;12.35;;;6.93;;
24739;SDS011;45234;48.148;17.128;2023-06-19T13:52:47;14.10;;;6.35;;
24739;SDS011;45234;48.148;17.128;2023-06-19T13:55:14;8.57;;;6.60;;
24739;SDS011;45234;48.148;17.128;2023-06-19T13:57:41;9.30;;;6.07;;
24739;SDS011;45234;48.148;17.128;2023-06-19T14:00:09;9.35;;;6.90;;
24739;SDS011;45234;48.148;17.128;2023-06-19T14:02:38;7.90;;;6.50;;
24739;SDS011;45234;48.148;17.128;2023-06-19T14:05:07;8.30;;;6.75;;
24739;SDS011;45234;48.148;17.128;2023-06-19T14:07:35;7.20;;;6.45;;
24739;SDS011;45234;48.148;17.128;2023-06-19T14:10:02;7.13;;;6.38;;
24739;SDS011;45234;48.148;17.128;2023-06-19T14:12:31;9.95;;;6.85;;
24739;SDS011;45234;48.148;17.128;2023-06-19T14:14:57;7.18;;;6.25;;
24739;SDS011;45234;48.148;17.128;2023-06-19T14:17:25;7.20;;;6.30;;
24739;SDS011;45234;48.148;17.128;2023-06-19T14:19:52;7.25;;;6.50;;
24739;SDS011;45234;48.148;17.128;2023-06-19T14:22:21;7.82;;;6.22;;
24739;SDS011;45234;48.148;17.128;2023-06-19T14:24:48;6.78;;;6.18;;
24739;SDS011;45234;48.148;17.128;2023-06-19T14:27:15;8.00;;;6.60;;
24739;SDS011;45234;48.148;17.128;2023-06-19T14:29:42;9.88;;;7.07;;
24739;SDS011;45234;48.148;17.128;2023-06-19T14:32:10;8.73;;;6.43;;
24739;SDS011;45234;48.148;17.128;2023-06-19T14:34:38;7.20;;;6.60;;
24739;SDS011;45234;48.148;17.128;2023-06-19T14:37:04;7.05;;;6.35;;
24739;SDS011;45234;48.148;17.128;2023-06-19T14:39:31;10.60;;;7.45;;
24739;SDS011;45234;48.148;17.128;2023-06-19T14:41:58;7.65;;;6.72;;
24739;SDS011;45234;48.148;17.128;2023-06-19T14:44:25;10.65;;;6.63;;
24739;SDS011;45234;48.148;17.128;2023-06-19T14:46:52;7.32;;;6.63;;
24739;SDS011;45234;48.148;17.128;2023-06-19T14:49:20;10.45;;;7.22;;
24739;SDS011;45234;48.148;17.128;2023-06-19T14:51:47;10.50;;;6.60;;
24739;SDS011;45234;48.148;17.128;2023-06-19T14:54:14;7.47;;;6.75;;
24739;SDS011;45234;48.148;17.128;2023-06-19T14:56:43;7.13;;;6.43;;